KFSK/FSK METAR and TAF weather

Enter ICAO airport designator
Station Type Date Time Source
KFSK METAR 2022/12/01 00:35 UTC NOAA

KFSK 010035Z AUTO 24004KT 10SM CLR M01/M10 A3044 RMK AO2 T10131103


Station Type Date Time Source
KFSK Decoded METAR 2022/12/01 00:35 UTC NOAA

Station name not available
Nov 30, 2022 - 07:35 PM EST / 2022.12.01 0035 UTC
Wind: from the WSW (240 degrees) at 5 MPH (4 KT):0
Visibility: 10 mile(s):0
Sky conditions: clear
Temperature: 29.7 F (-1.3 C)
Windchill: 24 F (-4 C):1
Dew Point: 13.5 F (-10.3 C)
Relative Humidity: 50%
Pressure (altimeter): 30.44 in. Hg (1030 hPa)
ob: KFSK 010035Z AUTO 24004KT 10SM CLR M01/M10 A3044 RMK AO2 T10131103
cycle: 0

Station Type Date Time Source
KFSK TAF UTC NOAA

Error!

Example: see airport list